createdAt,value
2022-10-03T00:00:20.253Z,99166.00
2022-10-03T00:03:11.793Z,99184.00
2022-10-03T00:06:10.192Z,99191.00
2022-10-03T00:09:14.207Z,99191.00
2022-10-03T00:12:04.251Z,99189.00
2022-10-03T00:15:07.354Z,99183.00
2022-10-03T00:17:56.029Z,99179.00
2022-10-03T00:21:00.299Z,99148.00
2022-10-03T00:23:48.187Z,99157.00
2022-10-03T00:26:59.226Z,99155.00
2022-10-03T00:29:39.382Z,99168.00
2022-10-03T00:32:42.217Z,99171.00
2022-10-03T00:35:30.349Z,99172.00
2022-10-03T00:38:31.211Z,99177.00
2022-10-03T00:41:25.594Z,99187.00
2022-10-03T00:44:39.185Z,99192.00
2022-10-03T00:47:22.084Z,99183.00
2022-10-03T00:50:32.494Z,99197.00
2022-10-03T00:53:29.484Z,99213.00
2022-10-03T00:56:30.209Z,99205.00
2022-10-03T00:59:08.869Z,99189.00
2022-10-03T01:01:49.266Z,99183.00
2022-10-03T01:04:31.015Z,99191.00
2022-10-03T01:07:32.225Z,99205.00
2022-10-03T01:10:22.222Z,99198.00
2022-10-03T01:13:15.302Z,99198.00
2022-10-03T01:16:09.324Z,99207.00
2022-10-03T01:18:42.282Z,99209.00
2022-10-03T01:21:15.087Z,99197.00
2022-10-03T01:24:23.259Z,99203.00
2022-10-03T01:27:05.442Z,99205.00
2022-10-03T01:29:54.275Z,99200.00
2022-10-03T01:32:54.297Z,99180.00
2022-10-03T01:35:39.056Z,99205.00
2022-10-03T01:39:08.280Z,99212.00
2022-10-03T01:41:58.964Z,99212.00
2022-10-03T01:45:02.449Z,99213.00
2022-10-03T01:47:39.439Z,99210.00
2022-10-03T01:50:51.279Z,99215.00
2022-10-03T01:54:05.307Z,99193.00
2022-10-03T01:56:53.210Z,99206.00
2022-10-03T01:59:28.284Z,99199.00
2022-10-03T02:02:40.923Z,99193.00
2022-10-03T02:05:35.257Z,99181.00
2022-10-03T02:08:15.583Z,99198.00
2022-10-03T02:10:59.314Z,99194.00
2022-10-03T02:13:46.733Z,99191.00
2022-10-03T02:17:06.234Z,99196.00
2022-10-03T02:19:50.064Z,99193.00
2022-10-03T02:23:02.334Z,99198.00
2022-10-03T02:26:32.277Z,99194.00
2022-10-03T02:29:37.277Z,99195.00
2022-10-03T02:32:51.274Z,99192.00
2022-10-03T02:35:43.269Z,99214.00
2022-10-03T02:39:20.259Z,99214.00
2022-10-03T02:42:02.302Z,99206.00
2022-10-03T02:45:06.261Z,99193.00
2022-10-03T02:48:31.315Z,99213.00
2022-10-03T02:51:07.981Z,99204.00
2022-10-03T02:54:19.344Z,99204.00
2022-10-03T02:57:47.289Z,99198.00
2022-10-03T03:00:34.310Z,99200.00
2022-10-03T03:03:49.267Z,99209.00
2022-10-03T03:06:37.694Z,99208.00
2022-10-03T03:09:43.311Z,99211.00
2022-10-03T03:12:42.257Z,99218.00
2022-10-03T03:15:52.342Z,99211.00
2022-10-03T03:18:37.244Z,99203.00
2022-10-03T03:21:35.284Z,99214.00
2022-10-03T03:24:32.559Z,99208.00
2022-10-03T03:27:38.404Z,99208.00
2022-10-03T03:30:19.379Z,99215.00
2022-10-03T03:33:09.345Z,99202.00
2022-10-03T03:36:04.775Z,99221.00
2022-10-03T03:39:17.329Z,99215.00
2022-10-03T03:42:05.289Z,99204.00
2022-10-03T03:45:05.366Z,99227.00
2022-10-03T03:48:19.709Z,99235.00
2022-10-03T03:51:21.300Z,99230.00
2022-10-03T03:54:02.671Z,99241.00
2022-10-03T03:56:56.359Z,99236.00
2022-10-03T03:59:55.750Z,99229.00
2022-10-03T04:02:51.556Z,99232.00
2022-10-03T04:05:40.244Z,99244.00
2022-10-03T04:08:32.295Z,99240.00
2022-10-03T04:11:29.914Z,99245.00
2022-10-03T04:14:40.317Z,99243.00
2022-10-03T04:17:23.882Z,99255.00
2022-10-03T04:20:15.323Z,99260.00
2022-10-03T04:23:45.379Z,99252.00
2022-10-03T04:26:54.472Z,99256.00
2022-10-03T04:30:13.198Z,99253.00
2022-10-03T04:32:55.399Z,99251.00
2022-10-03T04:36:05.629Z,99234.00
2022-10-03T04:39:00.334Z,99244.00
2022-10-03T04:41:51.025Z,99240.00
2022-10-03T04:45:01.365Z,99239.00
2022-10-03T04:47:49.890Z,99226.00
2022-10-03T04:50:44.371Z,99237.00
2022-10-03T04:53:49.667Z,99237.00
2022-10-03T04:56:59.356Z,99226.00
2022-10-03T04:59:49.367Z,99243.00
2022-10-03T05:02:40.384Z,99238.00
2022-10-03T05:05:35.387Z,99226.00
2022-10-03T05:08:27.336Z,99249.00
2022-10-03T05:11:41.465Z,99240.00
2022-10-03T05:14:41.376Z,99250.00
2022-10-03T05:17:41.944Z,99254.00
2022-10-03T05:20:40.939Z,99258.00
2022-10-03T05:24:04.337Z,99257.00
2022-10-03T05:27:32.345Z,99262.00
2022-10-03T05:30:33.404Z,99251.00
2022-10-03T05:34:01.031Z,99274.00
2022-10-03T05:36:53.344Z,99275.00
2022-10-03T05:39:39.911Z,99269.00
2022-10-03T05:42:32.369Z,99268.00
2022-10-03T05:45:19.933Z,99269.00
2022-10-03T05:48:14.364Z,99272.00
2022-10-03T05:51:38.624Z,99279.00
2022-10-03T05:55:02.229Z,99271.00
2022-10-03T05:58:03.417Z,99281.00
2022-10-03T06:01:02.322Z,99271.00
2022-10-03T06:03:56.389Z,99295.00
2022-10-03T06:07:08.211Z,99295.00
2022-10-03T06:10:24.439Z,99300.00
2022-10-03T06:13:09.219Z,99304.00
2022-10-03T06:16:20.459Z,99290.00
2022-10-03T06:19:32.459Z,99293.00
2022-10-03T06:22:35.464Z,99297.00
2022-10-03T06:25:44.383Z,99296.00
2022-10-03T06:28:49.440Z,99304.00
2022-10-03T06:31:59.926Z,99304.00
2022-10-03T06:34:58.424Z,99311.00
2022-10-03T06:37:50.404Z,99316.00
2022-10-03T06:40:42.518Z,99316.00
2022-10-03T06:43:52.834Z,99319.00
2022-10-03T06:47:13.464Z,99321.00
2022-10-03T06:50:02.014Z,99313.00
2022-10-03T06:53:11.418Z,99272.00
2022-10-03T06:55:50.047Z,99264.00
2022-10-03T06:59:00.440Z,99308.00
2022-10-03T07:01:48.903Z,99317.00
2022-10-03T07:04:57.494Z,99313.00
2022-10-03T07:08:16.513Z,99323.00
2022-10-03T07:11:14.461Z,99326.00
2022-10-03T07:14:13.525Z,99292.00
2022-10-03T07:17:29.497Z,99288.00
2022-10-03T07:20:11.469Z,99278.00
2022-10-03T07:23:04.493Z,99287.00
2022-10-03T07:25:53.499Z,99291.00
2022-10-03T07:28:50.481Z,99296.00
2022-10-03T07:31:38.718Z,99308.00
2022-10-03T07:34:37.717Z,99313.00
2022-10-03T07:37:48.440Z,99306.00
2022-10-03T07:40:51.304Z,99326.00
2022-10-03T07:43:33.465Z,99336.00
2022-10-03T07:46:24.827Z,99336.00
2022-10-03T07:49:25.515Z,99341.00
2022-10-03T07:52:28.586Z,99341.00
2022-10-03T07:55:45.478Z,99352.00
2022-10-03T07:58:27.502Z,99349.00
2022-10-03T08:01:34.455Z,99352.00
2022-10-03T08:04:46.463Z,99349.00
2022-10-03T08:07:28.500Z,99356.00
2022-10-03T08:10:40.702Z,99363.00
2022-10-03T08:13:43.661Z,99364.00
2022-10-03T08:16:28.507Z,99380.00
2022-10-03T08:19:22.182Z,99379.00
2022-10-03T08:22:32.505Z,99392.00
2022-10-03T08:25:46.509Z,99391.00
2022-10-03T08:28:53.480Z,99389.00
2022-10-03T08:32:09.487Z,99380.00
2022-10-03T08:35:00.389Z,99384.00
2022-10-03T08:38:02.517Z,99384.00
2022-10-03T08:41:21.674Z,99376.00
2022-10-03T08:44:19.486Z,99379.00
2022-10-03T08:47:10.794Z,99392.00
2022-10-03T08:50:21.467Z,99390.00
2022-10-03T08:53:06.521Z,99381.00
2022-10-03T08:56:06.400Z,99385.00
2022-10-03T08:59:50.601Z,99385.00
2022-10-03T09:03:20.206Z,99392.00
2022-10-03T09:06:11.539Z,99377.00
2022-10-03T09:09:12.561Z,99395.00
2022-10-03T09:12:07.586Z,99401.00
2022-10-03T09:15:21.620Z,99397.00
2022-10-03T09:18:00.601Z,99398.00
2022-10-03T09:21:24.372Z,99392.00
2022-10-03T09:24:09.646Z,99387.00
2022-10-03T09:27:33.557Z,99397.00
2022-10-03T09:30:35.996Z,99397.00
2022-10-03T09:33:28.321Z,99414.00
2022-10-03T09:36:56.638Z,99412.00
2022-10-03T09:39:54.664Z,99411.00
2022-10-03T09:42:42.613Z,99386.00
2022-10-03T09:45:44.414Z,99376.00
2022-10-03T09:48:46.568Z,99380.00
2022-10-03T09:51:54.742Z,99381.00
2022-10-03T09:54:49.839Z,99400.00
2022-10-03T09:58:23.507Z,99394.00
2022-10-03T10:01:07.380Z,99392.00
2022-10-03T10:03:43.789Z,99373.00
2022-10-03T10:07:01.662Z,99379.00
2022-10-03T10:09:43.668Z,99388.00
2022-10-03T10:12:41.991Z,99385.00
2022-10-03T10:16:01.731Z,99362.00
2022-10-03T10:18:31.592Z,99349.00
2022-10-03T10:21:26.582Z,99373.00
2022-10-03T10:24:21.945Z,99382.00
2022-10-03T10:27:26.578Z,99374.00
2022-10-03T10:30:36.902Z,99374.00
2022-10-03T10:34:07.564Z,99371.00
2022-10-03T10:36:50.583Z,99369.00
2022-10-03T10:39:53.788Z,99368.00
2022-10-03T10:43:15.487Z,99348.00
2022-10-03T10:46:16.697Z,99371.00
2022-10-03T10:49:10.747Z,99341.00
2022-10-03T10:52:16.941Z,99366.00
2022-10-03T10:55:24.282Z,99357.00
2022-10-03T10:58:12.647Z,99360.00
2022-10-03T11:01:29.261Z,99357.00
2022-10-03T11:04:54.732Z,99361.00
2022-10-03T11:08:02.679Z,99333.00
2022-10-03T11:10:50.360Z,99325.00
2022-10-03T11:13:51.639Z,99348.00
2022-10-03T11:16:37.027Z,99338.00
2022-10-03T11:19:59.613Z,99336.00
2022-10-03T11:23:12.630Z,99313.00
2022-10-03T11:26:42.973Z,99333.00
2022-10-03T11:29:25.055Z,99328.00
2022-10-03T11:32:36.692Z,99321.00
2022-10-03T11:35:44.457Z,99324.00
2022-10-03T11:38:41.725Z,99314.00
2022-10-03T11:42:00.705Z,99294.00
2022-10-03T11:45:05.975Z,99312.00
2022-10-03T11:47:51.657Z,99305.00
2022-10-03T11:50:42.644Z,99287.00
2022-10-03T11:53:46.698Z,99283.00
2022-10-03T11:56:36.234Z,99279.00
2022-10-03T12:00:00.699Z,99276.00
2022-10-03T12:02:52.804Z,99280.00
2022-10-03T12:05:38.125Z,99277.00
2022-10-03T12:08:14.772Z,99283.00
2022-10-03T12:11:27.799Z,99280.00
2022-10-03T12:14:13.704Z,99288.00
2022-10-03T12:17:05.961Z,99296.00
2022-10-03T12:20:14.835Z,99280.00
2022-10-03T12:22:51.872Z,99292.00
2022-10-03T12:25:41.753Z,99285.00
2022-10-03T12:28:32.744Z,99281.00
2022-10-03T12:31:31.430Z,99281.00
2022-10-03T12:34:34.778Z,99268.00
2022-10-03T12:37:44.925Z,99278.00
2022-10-03T12:40:38.707Z,99263.00
2022-10-03T12:43:53.762Z,99270.00
2022-10-03T12:47:03.141Z,99263.00
2022-10-03T12:50:11.605Z,99256.00
2022-10-03T12:53:15.709Z,99239.00
2022-10-03T12:56:13.824Z,99237.00
2022-10-03T12:59:00.014Z,99259.00
2022-10-03T13:01:39.017Z,99255.00
2022-10-03T13:04:48.728Z,99225.00
2022-10-03T13:07:21.289Z,99222.00
2022-10-03T13:10:08.674Z,99224.00
2022-10-03T13:12:48.851Z,99214.00
2022-10-03T13:15:53.925Z,99241.00
2022-10-03T13:18:40.748Z,99237.00
2022-10-03T13:21:46.046Z,99230.00
2022-10-03T13:24:34.757Z,99209.00
2022-10-03T13:27:04.887Z,99206.00
2022-10-03T13:30:01.752Z,99225.00
2022-10-03T13:32:32.847Z,99221.00
2022-10-03T13:35:28.757Z,99211.00
2022-10-03T13:38:14.112Z,99214.00
2022-10-03T13:41:13.727Z,99222.00
2022-10-03T13:43:51.767Z,99201.00
2022-10-03T13:46:51.978Z,99202.00
2022-10-03T13:49:40.780Z,99191.00
2022-10-03T13:52:40.162Z,99225.00
2022-10-03T13:55:22.767Z,99231.00
2022-10-03T13:58:23.744Z,99227.00
2022-10-03T14:01:23.028Z,99226.00
2022-10-03T14:04:39.797Z,99214.00
2022-10-03T14:07:25.761Z,99220.00
2022-10-03T14:10:10.699Z,99219.00
2022-10-03T14:13:04.717Z,99214.00
2022-10-03T14:15:52.483Z,99201.00
2022-10-03T14:19:38.310Z,99206.00
2022-10-03T14:22:50.386Z,99200.00
2022-10-03T14:25:48.904Z,99186.00
2022-10-03T14:28:37.087Z,99200.00
2022-10-03T14:31:30.836Z,99201.00
2022-10-03T14:34:04.598Z,99174.00
2022-10-03T14:36:46.880Z,99181.00
2022-10-03T14:39:55.091Z,99198.00
2022-10-03T14:43:04.817Z,99197.00
2022-10-03T14:45:43.341Z,99180.00
2022-10-03T14:48:31.817Z,99185.00
2022-10-03T14:51:15.099Z,99196.00
2022-10-03T14:54:01.757Z,99182.00
2022-10-03T14:56:30.810Z,99190.00
2022-10-03T14:59:00.319Z,99188.00
2022-10-03T15:01:33.747Z,99189.00
2022-10-03T15:04:10.760Z,99195.00
2022-10-03T15:06:46.834Z,99197.00
2022-10-03T15:09:44.795Z,99190.00
2022-10-03T15:12:25.116Z,99170.00
2022-10-03T15:15:07.833Z,99180.00
2022-10-03T15:17:37.984Z,99176.00
2022-10-03T15:20:05.735Z,99162.00
2022-10-03T15:22:46.852Z,99166.00
2022-10-03T15:25:35.837Z,99176.00
2022-10-03T15:28:19.540Z,99181.00
2022-10-03T15:30:52.824Z,99188.00
2022-10-03T15:33:32.537Z,99180.00
2022-10-03T15:36:29.796Z,99181.00
2022-10-03T15:39:02.990Z,99170.00
2022-10-03T15:41:41.056Z,99177.00
2022-10-03T15:44:30.911Z,99175.00
2022-10-03T15:47:00.315Z,99171.00
2022-10-03T15:50:06.934Z,99182.00
2022-10-03T15:52:54.888Z,99164.00
2022-10-03T15:55:48.843Z,99168.00
2022-10-03T15:58:22.856Z,99165.00
2022-10-03T16:01:08.923Z,99156.00
2022-10-03T16:03:46.444Z,99167.00
2022-10-03T16:06:31.123Z,99174.00
2022-10-03T16:09:14.854Z,99184.00
2022-10-03T16:11:51.479Z,99176.00
2022-10-03T16:14:43.899Z,99172.00
2022-10-03T16:17:39.954Z,99173.00
2022-10-03T16:20:39.280Z,99170.00
2022-10-03T16:23:30.151Z,99178.00
2022-10-03T16:26:14.992Z,99151.00
2022-10-03T16:29:29.561Z,99183.00
2022-10-03T16:32:12.183Z,99186.00
2022-10-03T16:34:48.994Z,99181.00
2022-10-03T16:37:24.117Z,99180.00
2022-10-03T16:40:22.255Z,99184.00
2022-10-03T16:42:51.535Z,99196.00
2022-10-03T16:45:37.613Z,99194.00
2022-10-03T16:48:16.352Z,99188.00
2022-10-03T16:50:58.297Z,99194.00
2022-10-03T16:53:31.857Z,99194.00
2022-10-03T16:56:08.328Z,99190.00
2022-10-03T16:58:47.888Z,99196.00
2022-10-03T17:01:42.282Z,99199.00
2022-10-03T17:04:25.644Z,99203.00
2022-10-03T17:07:02.951Z,99205.00
2022-10-03T17:09:59.663Z,99203.00
2022-10-03T17:12:49.947Z,99203.00
2022-10-03T17:15:28.616Z,99212.00
2022-10-03T17:18:29.867Z,99210.00
2022-10-03T17:21:09.168Z,99195.00
2022-10-03T17:24:04.886Z,99202.00
2022-10-03T17:26:47.964Z,99224.00
2022-10-03T17:29:42.982Z,99214.00
2022-10-03T17:32:35.877Z,99220.00
2022-10-03T17:35:37.946Z,99222.00
2022-10-03T17:38:49.801Z,99220.00
2022-10-03T17:42:11.892Z,99231.00
2022-10-03T17:44:47.546Z,99231.00
2022-10-03T17:47:27.952Z,99233.00
2022-10-03T17:50:18.129Z,99234.00
2022-10-03T17:52:52.944Z,99247.00
2022-10-03T17:55:40.340Z,99249.00
2022-10-03T17:58:21.937Z,99241.00
2022-10-03T18:01:06.718Z,99262.00
2022-10-03T18:03:53.965Z,99261.00
2022-10-03T18:06:29.861Z,99269.00
2022-10-03T18:09:03.882Z,99273.00
2022-10-03T18:11:30.790Z,99260.00
2022-10-03T18:14:37.947Z,99274.00
2022-10-03T18:17:47.037Z,99270.00
2022-10-03T18:20:56.992Z,99265.00
2022-10-03T18:23:54.130Z,99264.00
2022-10-03T18:26:48.890Z,99273.00
2022-10-03T18:30:07.989Z,99279.00
2022-10-03T18:32:38.259Z,99257.00
2022-10-03T18:35:34.928Z,99268.00
2022-10-03T18:38:29.987Z,99284.00
2022-10-03T18:41:01.182Z,99269.00
2022-10-03T18:43:42.967Z,99274.00
2022-10-03T18:46:19.639Z,99277.00
2022-10-03T18:49:37.302Z,99280.00
2022-10-03T18:52:22.946Z,99260.00
2022-10-03T18:55:02.731Z,99279.00
2022-10-03T18:57:49.983Z,99277.00
2022-10-03T19:00:28.089Z,99281.00
2022-10-03T19:03:20.009Z,99280.00
2022-10-03T19:05:54.168Z,99284.00
2022-10-03T19:08:37.061Z,99266.00
2022-10-03T19:11:18.997Z,99272.00
2022-10-03T19:14:12.991Z,99271.00
2022-10-03T19:16:55.968Z,99279.00
2022-10-03T19:19:59.040Z,99281.00
2022-10-03T19:22:37.482Z,99273.00
2022-10-03T19:25:12.017Z,99289.00
2022-10-03T19:27:48.899Z,99289.00
2022-10-03T19:30:29.988Z,99287.00
2022-10-03T19:33:16.690Z,99305.00
2022-10-03T19:35:53.056Z,99296.00
2022-10-03T19:38:50.080Z,99316.00
2022-10-03T19:42:12.037Z,99321.00
2022-10-03T19:44:38.927Z,99315.00
2022-10-03T19:47:31.334Z,99324.00
2022-10-03T19:50:14.365Z,99323.00
2022-10-03T19:52:47.998Z,99336.00
2022-10-03T19:55:18.954Z,99337.00
2022-10-03T19:58:03.015Z,99332.00
2022-10-03T20:00:44.994Z,99335.00
2022-10-03T20:03:47.062Z,99325.00
2022-10-03T20:06:46.185Z,99335.00
2022-10-03T20:10:00.132Z,99335.00
2022-10-03T20:12:28.881Z,99338.00
2022-10-03T20:15:12.058Z,99338.00
2022-10-03T20:17:38.895Z,99347.00
2022-10-03T20:20:20.081Z,99356.00
2022-10-03T20:22:47.077Z,99350.00
2022-10-03T20:26:04.004Z,99346.00
2022-10-03T20:29:11.897Z,99359.00
2022-10-03T20:31:47.912Z,99360.00
2022-10-03T20:34:16.888Z,99360.00
2022-10-03T20:37:03.990Z,99361.00
2022-10-03T20:39:35.301Z,99365.00
2022-10-03T20:42:15.044Z,99370.00
2022-10-03T20:45:15.682Z,99374.00
2022-10-03T20:48:12.009Z,99358.00
2022-10-03T20:50:43.607Z,99378.00
2022-10-03T20:53:30.132Z,99387.00
2022-10-03T20:56:08.787Z,99381.00
2022-10-03T20:58:54.039Z,99386.00
2022-10-03T21:01:26.724Z,99393.00
2022-10-03T21:04:26.057Z,99399.00
2022-10-03T21:07:21.082Z,99395.00
2022-10-03T21:10:15.317Z,99398.00
2022-10-03T21:12:49.120Z,99390.00
2022-10-03T21:15:52.147Z,99394.00
2022-10-03T21:18:23.044Z,99394.00
2022-10-03T21:21:24.192Z,99372.00
2022-10-03T21:24:27.729Z,99395.00
2022-10-03T21:27:28.137Z,99395.00
2022-10-03T21:30:09.068Z,99389.00
2022-10-03T21:32:54.055Z,99392.00
2022-10-03T21:35:37.409Z,99380.00
2022-10-03T21:38:34.087Z,99383.00
2022-10-03T21:41:21.086Z,99402.00
2022-10-03T21:43:59.566Z,99391.00
2022-10-03T21:46:56.044Z,99405.00
2022-10-03T21:49:57.074Z,99397.00
2022-10-03T21:53:00.082Z,99375.00
2022-10-03T21:55:54.692Z,99391.00
2022-10-03T21:58:47.069Z,99382.00
2022-10-03T22:01:40.352Z,99395.00
2022-10-03T22:04:37.087Z,99404.00
2022-10-03T22:07:46.176Z,99400.00
2022-10-03T22:10:34.140Z,99390.00
2022-10-03T22:13:06.825Z,99391.00
2022-10-03T22:16:00.160Z,99400.00
2022-10-03T22:18:27.149Z,99382.00
2022-10-03T22:21:14.075Z,99373.00
2022-10-03T22:24:24.074Z,99395.00
2022-10-03T22:27:17.081Z,99401.00
2022-10-03T22:30:00.552Z,99407.00
2022-10-03T22:32:42.089Z,99415.00
2022-10-03T22:35:25.057Z,99406.00
2022-10-03T22:37:51.986Z,99395.00
2022-10-03T22:40:25.121Z,99407.00
2022-10-03T22:42:55.077Z,99421.00
2022-10-03T22:45:32.056Z,99409.00
2022-10-03T22:48:01.558Z,99415.00
2022-10-03T22:50:39.066Z,99417.00
2022-10-03T22:53:05.913Z,99400.00
2022-10-03T22:55:39.046Z,99408.00
2022-10-03T22:58:06.114Z,99428.00
2022-10-03T23:00:39.151Z,99421.00
2022-10-03T23:03:23.119Z,99407.00
2022-10-03T23:06:32.102Z,99427.00
2022-10-03T23:09:46.504Z,99424.00
2022-10-03T23:12:20.084Z,99414.00
2022-10-03T23:14:49.489Z,99424.00
2022-10-03T23:18:03.087Z,99418.00
2022-10-03T23:21:22.492Z,99434.00
2022-10-03T23:24:13.084Z,99430.00
2022-10-03T23:26:49.902Z,99441.00
2022-10-03T23:29:24.132Z,99433.00
2022-10-03T23:32:07.515Z,99426.00
2022-10-03T23:34:44.180Z,99449.00
2022-10-03T23:37:20.323Z,99451.00
2022-10-03T23:39:56.223Z,99446.00
2022-10-03T23:42:38.223Z,99447.00
2022-10-03T23:45:07.864Z,99446.00
2022-10-03T23:47:49.100Z,99438.00
2022-10-03T23:50:48.802Z,99448.00
2022-10-03T23:53:50.134Z,99447.00
2022-10-03T23:56:34.134Z,99438.00
2022-10-03T23:59:04.012Z,99445.00
